Time;durP1;ratioP1;P1;durP2;ratioP2;P2;SDS_P1;SDS_P2;PMS_P1;PMS_P2;Temp;Humidity;BMP_temperature;BMP_pressure;BME280_temperature;BME280_humidity;BME280_pressure;Samples;Min_cycle;Max_cycle;Signal;HPM_P1;HPM_P2
2023/04/14 00:01:30;;;;;;;;;;;;;;;;;;5045996;28;43140;-81
2023/04/14 00:03:56;;;;;;;;;;;;;;;;;;5047291;28;42951;-81
2023/04/14 00:06:22;;;;;;;;;;;;;;;;;;5047526;28;43246;-81
2023/04/14 00:08:48;;;;;;;;;;;;;;;;;;5046393;28;43759;-82
2023/04/14 00:11:14;;;;;;;;;;;;;;;;;;5046554;28;43099;-83
2023/04/14 00:13:40;;;;;;;;;;;;;;;;;;5027867;28;43733;-81
2023/04/14 00:16:07;;;;;;;;;;;;;;;;;;5046927;28;42830;-81
2023/04/14 00:18:32;;;;;;;;;;;;;;;;;;5046283;28;43012;-81
2023/04/14 00:20:58;;;;;;;;;;;;;;;;;;5046590;28;43264;-81
2023/04/14 00:23:24;;;;;;;;;;;;;;;;;;5046019;28;42939;-81
2023/04/14 00:25:50;;;;;;;;;;;;;;;;;;5046192;28;43200;-81
2023/04/14 00:28:16;;;;;;;;;;;;;;;;;;5046382;28;42930;-80
2023/04/14 00:30:42;;;;;;;;;;;;;;;;;;5045237;28;43727;-81
2023/04/14 00:33:08;;;;;;;;;;;;;;;;;;5045267;28;42909;-81
2023/04/14 00:35:34;;;;;;;;;;;;;;;;;;5046588;28;43004;-80
2023/04/14 00:38:00;;;;;;;;;;;;;;;;;;5028336;28;45309;-81
2023/04/14 00:40:26;;;;;;;;;;;;;;;;;;5044315;28;43201;-81
2023/04/14 00:42:51;;;;;;;;;;;;;;;;;;5046621;28;43647;-81
2023/04/14 00:45:17;;;;;;;;;;;;;;;;;;5045139;28;43100;-82
2023/04/14 00:47:46;;;;;;;;;;;;;;;;;;5027344;28;45642;-81
2023/04/14 00:50:12;;;;;;;;;;;;;;;;;;5046177;28;42960;-81
2023/04/14 00:52:38;;;;;;;;;;;;;;;;;;5027731;28;44829;-81
2023/04/14 00:55:04;;;;;;;;;;;;;;;;;;5046749;28;42905;-81
2023/04/14 00:57:29;;;;;;;;;;;;;;;;;;5045622;28;43430;-82
2023/04/14 00:59:55;;;;;;;;;;;;;;;;;;5045892;28;42928;-81
2023/04/14 01:02:21;;;;;;;;;;;;;;;;;;5045459;28;43640;-82
2023/04/14 01:04:47;;;;;;;;;;;;;;;;;;5045967;28;42835;-83
2023/04/14 01:07:13;;;;;;;;;;;;;;;;;;5045272;28;44030;-81
2023/04/14 01:09:39;;;;;;;;;;;;;;;;;;5044816;28;42956;-81
2023/04/14 01:12:06;;;;;;;;;;;;;;;;;;5045322;28;42896;-82
2023/04/14 01:14:32;;;;;;;;;;;;;;;;;;5044694;28;42889;-82
2023/04/14 01:16:57;;;;;;;;;;;;;;;;;;5044956;28;42787;-82
2023/04/14 01:19:23;;;;;;;;;;;;;;;;;;5045645;28;42913;-81
2023/04/14 01:21:50;;;;;;;;;;;;;;;;;;5045456;28;42846;-81
2023/04/14 01:24:15;;;;;;;;;;;;;;;;;;5045788;28;43584;-81
2023/04/14 01:26:41;;;;;;;;;;;;;;;;;;5045789;28;43043;-82
2023/04/14 01:29:07;;;;;;;;;;;;;;;;;;5045319;28;42908;-81
2023/04/14 01:31:33;;;;;;;;;;;;;;;;;;5045009;28;44052;-81
2023/04/14 01:33:59;;;;;;;;;;;;;;;;;;5045552;28;42958;-81
2023/04/14 01:36:26;;;;;;;;;;;;;;;;;;5045770;28;42894;-82
2023/04/14 01:38:51;;;;;;;;;;;;;;;;;;5045215;28;42844;-81
2023/04/14 01:41:18;;;;;;;;;;;;;;;;;;5043390;28;43210;-82
2023/04/14 01:43:44;;;;;;;;;;;;;;;;;;5044809;28;43161;-81
2023/04/14 01:46:12;;;;;;;;;;;;;;;;;;5045011;28;42881;-80
2023/04/14 01:48:38;;;;;;;;;;;;;;;;;;5026884;28;43000;-82
2023/04/14 01:51:04;;;;;;;;;;;;;;;;;;5045114;28;43059;-81
2023/04/14 01:53:30;;;;;;;;;;;;;;;;;;5044447;28;42972;-82
2023/04/14 01:55:55;;;;;;;;;;;;;;;;;;5045162;28;44219;-85
2023/04/14 01:58:21;;;;;;;;;;;;;;;;;;5027258;28;43374;-85
2023/04/14 02:00:47;;;;;;;;;;;;;;;;;;5043537;28;43117;-86
2023/04/14 02:03:13;;;;;;;;;;;;;;;;;;5044318;28;43516;-83
2023/04/14 02:05:39;;;;;;;;;;;;;;;;;;5044756;28;42935;-84
2023/04/14 02:08:05;;;;;;;;;;;;;;;;;;5045112;28;43046;-85
2023/04/14 02:10:31;;;;;;;;;;;;;;;;;;5044503;28;43480;-85
2023/04/14 02:12:57;;;;;;;;;;;;;;;;;;5042624;28;42960;-85
2023/04/14 02:15:23;;;;;;;;;;;;;;;;;;5026394;28;43367;-84
2023/04/14 02:17:49;;;;;;;;;;;;;;;;;;5044953;28;42916;-85
2023/04/14 02:20:15;;;;;;;;;;;;;;;;;;5026711;28;43416;-83
2023/04/14 02:22:40;;;;;;;;;;;;;;;;;;5044244;28;42952;-85
2023/04/14 02:25:06;;;;;;;;;;;;;;;;;;5044841;28;42859;-85
2023/04/14 02:27:32;;;;;;;;;;;;;;;;;;5044318;28;43095;-85
2023/04/14 02:29:58;;;;;;;;;;;;;;;;;;5044024;28;42990;-85
2023/04/14 02:32:24;;;;;;;;;;;;;;;;;;5045167;28;42967;-85
2023/04/14 02:34:50;;;;;;;;;;;;;;;;;;5044590;28;43755;-86
2023/04/14 02:37:16;;;;;;;;;;;;;;;;;;5026350;28;43134;-84
2023/04/14 02:39:42;;;;;;;;;;;;;;;;;;5025883;28;45396;-85
2023/04/14 02:42:09;;;;;;;;;;;;;;;;;;5026590;28;43113;-85
2023/04/14 02:44:35;;;;;;;;;;;;;;;;;;5044234;28;43388;-86
2023/04/14 02:47:02;;;;;;;;;;;;;;;;;;5043899;28;42950;-85
2023/04/14 02:49:28;;;;;;;;;;;;;;;;;;5043937;28;43393;-85
2023/04/14 02:51:54;;;;;;;;;;;;;;;;;;5044337;28;43140;-85
2023/04/14 02:54:20;;;;;;;;;;;;;;;;;;5044821;28;42976;-86
2023/04/14 02:56:46;;;;;;;;;;;;;;;;;;5026564;28;42980;-86
2023/04/14 02:59:12;;;;;;;;;;;;;;;;;;5044204;28;43023;-86
2023/04/14 03:01:38;;;;;;;;;;;;;;;;;;5043863;28;43522;-80
2023/04/14 03:04:04;;;;;;;;;;;;;;;;;;5044273;28;43031;-81
2023/04/14 03:06:30;;;;;;;;;;;;;;;;;;5025755;28;42972;-82
2023/04/14 03:08:56;;;;;;;;;;;;;;;;;;5045364;28;42909;-82
2023/04/14 03:11:22;;;;;;;;;;;;;;;;;;5048087;28;43047;-81
2023/04/14 03:13:48;;;;;;;;;;;;;;;;;;5047653;28;43547;-80
2023/04/14 03:16:14;;;;;;;;;;;;;;;;;;5047236;28;43085;-82
2023/04/14 03:18:40;;;;;;;;;;;;;;;;;;5045451;28;42874;-81
2023/04/14 03:21:06;;;;;;;;;;;;;;;;;;5047077;28;42909;-81
2023/04/14 03:23:32;;;;;;;;;;;;;;;;;;5046866;28;42905;-82
2023/04/14 03:25:58;;;;;;;;;;;;;;;;;;5047636;28;42822;-82
2023/04/14 03:28:25;;;;;;;;;;;;;;;;;;5047406;28;43038;-85
2023/04/14 03:30:52;;;;;;;;;;;;;;;;;;5047567;28;42920;-82
2023/04/14 03:33:18;;;;;;;;;;;;;;;;;;5045731;28;43420;-81
2023/04/14 03:35:44;;;;;;;;;;;;;;;;;;5041981;28;43025;-83
2023/04/14 03:38:10;;;;;;;;;;;;;;;;;;5046799;28;43509;-81
2023/04/14 03:40:37;;;;;;;;;;;;;;;;;;5046630;28;43083;-81
2023/04/14 03:43:04;;;;;;;;;;;;;;;;;;5046323;28;43423;-82
2023/04/14 03:45:31;;;;;;;;;;;;;;;;;;5047694;28;42934;-81
2023/04/14 03:47:57;;;;;;;;;;;;;;;;;;5047375;28;43707;-83
2023/04/14 03:50:22;;;;;;;;;;;;;;;;;;5047145;28;42883;-83
2023/04/14 03:52:49;;;;;;;;;;;;;;;;;;5047216;28;43464;-85
2023/04/14 03:55:16;;;;;;;;;;;;;;;;;;5047354;28;42929;-86
2023/04/14 03:57:42;;;;;;;;;;;;;;;;;;5027935;28;44565;-81
2023/04/14 04:00:09;;;;;;;;;;;;;;;;;;5046802;28;43080;-81
2023/04/14 04:02:35;;;;;;;;;;;;;;;;;;5045651;28;43982;-81
2023/04/14 04:05:01;;;;;;;;;;;;;;;;;;5046641;28;42926;-81
2023/04/14 04:07:27;;;;;;;;;;;;;;;;;;5043761;28;43544;-83
2023/04/14 04:09:53;;;;;;;;;;;;;;;;;;5042643;28;43025;-84
2023/04/14 04:12:19;;;;;;;;;;;;;;;;;;5020484;28;43916;-81
2023/04/14 04:14:45;;;;;;;;;;;;;;;;;;5036801;28;42913;-82
2023/04/14 04:17:11;;;;;;;;;;;;;;;;;;5036217;28;43682;-83
2023/04/14 04:19:36;;;;;;;;;;;;;;;;;;5036161;28;42896;-83
2023/04/14 04:22:02;;;;;;;;;;;;;;;;;;5036584;28;43015;-84
2023/04/14 04:24:29;;;;;;;;;;;;;;;;;;5034690;28;42974;-85
2023/04/14 04:26:55;;;;;;;;;;;;;;;;;;5035892;28;43417;-87
2023/04/14 04:29:20;;;;;;;;;;;;;;;;;;5013847;28;42993;-84
2023/04/14 04:31:46;;;;;;;;;;;;;;;;;;5040241;28;43847;-84
2023/04/14 04:34:12;;;;;;;;;;;;;;;;;;5045358;28;42827;-83
2023/04/14 04:36:38;;;;;;;;;;;;;;;;;;5039899;28;43754;-81
2023/04/14 04:39:04;;;;;;;;;;;;;;;;;;5037063;28;43193;-80
2023/04/14 04:41:30;;;;;;;;;;;;;;;;;;5035640;28;43061;-80
2023/04/14 04:43:56;;;;;;;;;;;;;;;;;;5035289;28;43026;-80
2023/04/14 04:46:22;;;;;;;;;;;;;;;;;;5036451;28;42854;-81
2023/04/14 04:48:47;;;;;;;;;;;;;;;;;;5033450;28;43002;-80
2023/04/14 04:51:13;;;;;;;;;;;;;;;;;;5036886;28;42968;-80
2023/04/14 04:53:39;;;;;;;;;;;;;;;;;;5035762;28;43102;-82
2023/04/14 04:56:05;;;;;;;;;;;;;;;;;;5034014;28;43519;-82
2023/04/14 04:58:31;;;;;;;;;;;;;;;;;;5034165;28;42743;-82
2023/04/14 05:00:57;;;;;;;;;;;;;;;;;;5040673;28;43528;-81
2023/04/14 05:03:23;;;;;;;;;;;;;;;;;;5035917;28;42905;-85
2023/04/14 05:05:49;;;;;;;;;;;;;;;;;;5034747;28;43031;-83
2023/04/14 05:08:15;;;;;;;;;;;;;;;;;;5027866;28;42885;-82
2023/04/14 05:10:41;;;;;;;;;;;;;;;;;;5044300;28;43631;-91
2023/04/14 05:13:07;;;;;;;;;;;;;;;;;;5046055;28;42882;-81
2023/04/14 05:15:33;;;;;;;;;;;;;;;;;;5045980;28;43463;-84
2023/04/14 05:18:00;;;;;;;;;;;;;;;;;;5037574;28;44435;-80
2023/04/14 05:20:26;;;;;;;;;;;;;;;;;;5032455;28;43432;-78
2023/04/14 05:22:52;;;;;;;;;;;;;;;;;;5010752;28;42819;-90
2023/04/14 05:25:18;;;;;;;;;;;;;;;;;;5025823;28;43084;-79
2023/04/14 05:27:44;;;;;;;;;;;;;;;;;;5041389;28;42862;-79
2023/04/14 05:30:10;;;;;;;;;;;;;;;;;;5031394;28;43532;-78
2023/04/14 05:32:36;;;;;;;;;;;;;;;;;;5044861;28;42945;-79
2023/04/14 05:35:02;;;;;;;;;;;;;;;;;;5045818;28;43556;-80
2023/04/14 05:37:28;;;;;;;;;;;;;;;;;;5045525;28;42983;-79
2023/04/14 05:39:54;;;;;;;;;;;;;;;;;;5044646;28;43432;-79
2023/04/14 05:42:20;;;;;;;;;;;;;;;;;;5044991;28;42941;-88
2023/04/14 05:44:46;;;;;;;;;;;;;;;;;;5044633;28;44205;-80
2023/04/14 05:47:12;;;;;;;;;;;;;;;;;;5044906;28;43093;-80
2023/04/14 05:49:38;;;;;;;;;;;;;;;;;;5045636;28;42964;-80
2023/04/14 05:52:04;;;;;;;;;;;;;;;;;;5046104;28;42970;-81
2023/04/14 05:54:30;;;;;;;;;;;;;;;;;;5047295;28;42975;-80
2023/04/14 05:56:56;;;;;;;;;;;;;;;;;;5047917;28;43143;-80
2023/04/14 05:59:22;;;;;;;;;;;;;;;;;;5028523;28;43002;-81
2023/04/14 06:01:48;;;;;;;;;;;;;;;;;;5023927;28;43297;-85
2023/04/14 06:04:14;;;;;;;;;;;;;;;;;;5045152;28;43452;-83
2023/04/14 06:06:40;;;;;;;;;;;;;;;;;;5046014;28;42861;-83
2023/04/14 06:09:06;;;;;;;;;;;;;;;;;;5046074;28;43007;-85
2023/04/14 06:11:32;;;;;;;;;;;;;;;;;;5027275;28;42949;-84
2023/04/14 06:14:00;;;;;;;;;;;;;;;;;;5044581;28;42972;-87
2023/04/14 06:16:26;;;;;;;;;;;;;;;;;;5027295;28;43044;-85
2023/04/14 06:18:52;;;;;;;;;;;;;;;;;;5027409;28;43917;-86
2023/04/14 06:21:18;;;;;;;;;;;;;;;;;;5027235;28;42819;-87
2023/04/14 06:23:44;;;;;;;;;;;;;;;;;;5045482;28;43398;-87
2023/04/14 06:26:10;;;;;;;;;;;;;;;;;;5027313;28;43040;-84
2023/04/14 06:28:36;;;;;;;;;;;;;;;;;;5026807;28;44424;-89
2023/04/14 06:31:04;;;;;;;;;;;;;;;;;;5045715;28;42908;-86
2023/04/14 06:33:30;;;;;;;;;;;;;;;;;;5027057;28;42837;-89
2023/04/14 06:35:56;;;;;;;;;;;;;;;;;;5027068;28;42929;-87
2023/04/14 06:38:24;;;;;;;;;;;;;;;;;;5045080;28;42974;-84
2023/04/14 06:40:50;;;;;;;;;;;;;;;;;;5045526;28;42774;-88
2023/04/14 06:43:16;;;;;;;;;;;;;;;;;;5043930;28;42807;-88
2023/04/14 06:45:42;;;;;;;;;;;;;;;;;;5044892;28;42715;-85
2023/04/14 06:48:10;;;;;;;;;;;;;;;;;;5044931;28;43125;-87
2023/04/14 06:50:36;;;;;;;;;;;;;;;;;;5027024;28;42976;-84
2023/04/14 06:53:03;;;;;;;;;;;;;;;;;;5044767;28;42932;-89
2023/04/14 06:55:29;;;;;;;;;;;;;;;;;;5044981;28;42814;-89
2023/04/14 06:57:55;;;;;;;;;;;;;;;;;;5044345;28;43422;-89
2023/04/14 07:00:21;;;;;;;;;;;;;;;;;;5044840;28;42874;-89
2023/04/14 07:02:47;;;;;;;;;;;;;;;;;;5044595;28;42797;-90
2023/04/14 07:05:13;;;;;;;;;;;;;;;;;;5045137;28;42977;-87
2023/04/14 07:07:39;;;;;;;;;;;;;;;;;;5044308;28;43082;-90
2023/04/14 07:10:05;;;;;;;;;;;;;;;;;;5026102;28;43044;-87
2023/04/14 07:12:31;;;;;;;;;;;;;;;;;;5045665;28;43165;-89
2023/04/14 07:14:57;;;;;;;;;;;;;;;;;;5045015;28;43020;-88
2023/04/14 07:17:23;;;;;;;;;;;;;;;;;;5044776;28;43434;-82
2023/04/14 07:19:49;;;;;;;;;;;;;;;;;;5044556;28;42924;-87
2023/04/14 07:22:15;;;;;;;;;;;;;;;;;;5044456;28;44619;-82
2023/04/14 07:24:41;;;;;;;;;;;;;;;;;;5044723;28;42833;-82
2023/04/14 07:27:13;;;;;;;;;;;;;;;;;;5044258;28;42995;-83
2023/04/14 07:29:40;;;;;;;;;;;;;;;;;;5044817;28;42816;-86
2023/04/14 07:32:06;;;;;;;;;;;;;;;;;;5045175;28;42940;-82
2023/04/14 07:34:32;;;;;;;;;;;;;;;;;;5044910;28;42837;-82
2023/04/14 07:36:58;;;;;;;;;;;;;;;;;;5026184;28;44360;-82
2023/04/14 07:39:24;;;;;;;;;;;;;;;;;;5044531;28;42900;-89
2023/04/14 07:41:50;;;;;;;;;;;;;;;;;;5044041;28;43460;-81
2023/04/14 07:44:16;;;;;;;;;;;;;;;;;;5025831;28;43037;-83
2023/04/14 07:46:41;;;;;;;;;;;;;;;;;;5043869;28;43636;-81
2023/04/14 07:49:07;;;;;;;;;;;;;;;;;;5044465;28;43130;-85
2023/04/14 07:51:33;;;;;;;;;;;;;;;;;;5044041;28;43056;-84
2023/04/14 07:53:59;;;;;;;;;;;;;;;;;;5045786;28;43047;-84
2023/04/14 07:56:25;;;;;;;;;;;;;;;;;;5047858;28;43770;-83
2023/04/14 07:58:51;;;;;;;;;;;;;;;;;;5047888;28;42929;-83
2023/04/14 08:01:17;;;;;;;;;;;;;;;;;;5047039;28;43606;-83
2023/04/14 08:03:43;;;;;;;;;;;;;;;;;;5046911;28;42707;-87
2023/04/14 08:06:09;;;;;;;;;;;;;;;;;;5046595;28;43914;-85
2023/04/14 08:08:35;;;;;;;;;;;;;;;;;;5047371;28;42994;-84
2023/04/14 08:11:00;;;;;;;;;;;;;;;;;;5047228;28;42907;-84
2023/04/14 08:13:26;;;;;;;;;;;;;;;;;;5029257;28;42965;-83
2023/04/14 08:15:52;;;;;;;;;;;;;;;;;;5047604;28;42995;-84
2023/04/14 08:18:18;;;;;;;;;;;;;;;;;;5047392;28;42909;-84
2023/04/14 08:20:44;;;;;;;;;;;;;;;;;;5047561;28;43783;-88
2023/04/14 08:23:13;;;;;;;;;;;;;;;;;;5047369;28;42734;-84
2023/04/14 08:25:39;;;;;;;;;;;;;;;;;;5047509;28;43495;-83
2023/04/14 08:28:05;;;;;;;;;;;;;;;;;;5028865;28;42854;-85
2023/04/14 08:30:31;;;;;;;;;;;;;;;;;;5046391;28;43338;-85
2023/04/14 08:32:57;;;;;;;;;;;;;;;;;;5029010;28;42818;-84
2023/04/14 08:35:23;;;;;;;;;;;;;;;;;;5046972;28;43401;-90
2023/04/14 08:37:49;;;;;;;;;;;;;;;;;;5046426;28;42940;-84
2023/04/14 08:40:15;;;;;;;;;;;;;;;;;;5046298;28;42909;-82
2023/04/14 08:42:41;;;;;;;;;;;;;;;;;;5046738;28;42869;-83
2023/04/14 08:45:06;;;;;;;;;;;;;;;;;;5046493;28;42830;-83
2023/04/14 08:47:32;;;;;;;;;;;;;;;;;;5046479;28;42963;-84
2023/04/14 08:49:58;;;;;;;;;;;;;;;;;;5046140;28;43999;-83
2023/04/14 08:52:24;;;;;;;;;;;;;;;;;;5046716;28;43041;-85
2023/04/14 08:54:50;;;;;;;;;;;;;;;;;;5046793;28;43024;-83
2023/04/14 08:57:16;;;;;;;;;;;;;;;;;;5047173;28;43204;-83
2023/04/14 08:59:42;;;;;;;;;;;;;;;;;;5046994;28;42897;-85
2023/04/14 09:02:08;;;;;;;;;;;;;;;;;;5046642;28;42854;-86
2023/04/14 09:04:34;;;;;;;;;;;;;;;;;;5028187;28;43721;-84
2023/04/14 09:07:00;;;;;;;;;;;;;;;;;;5027785;28;42994;-85
2023/04/14 09:09:25;;;;;;;;;;;;;;;;;;5046166;28;43019;-90
2023/04/14 09:11:51;;;;;;;;;;;;;;;;;;5047538;28;42842;-89
2023/04/14 09:14:17;;;;;;;;;;;;;;;;;;5047686;28;42956;-82
2023/04/14 09:16:44;;;;;;;;;;;;;;;;;;5046539;28;42949;-88
2023/04/14 09:19:10;;;;;;;;;;;;;;;;;;5046424;28;44301;-84
2023/04/14 09:21:36;;;;;;;;;;;;;;;;;;5046220;28;42955;-83
2023/04/14 09:24:02;;;;;;;;;;;;;;;;;;5045184;28;44384;-84
2023/04/14 09:26:28;;;;;;;;;;;;;;;;;;5046351;28;42941;-87
2023/04/14 09:28:54;;;;;;;;;;;;;;;;;;5046378;28;42935;-87
2023/04/14 09:31:20;;;;;;;;;;;;;;;;;;5046401;28;42743;-88
2023/04/14 09:33:46;;;;;;;;;;;;;;;;;;5045840;28;43667;-83
2023/04/14 09:36:15;;;;;;;;;;;;;;;;;;5046603;28;42840;-85
2023/04/14 09:38:41;;;;;;;;;;;;;;;;;;5046328;28;44665;-85
2023/04/14 09:41:07;;;;;;;;;;;;;;;;;;5047003;28;42946;-90
2023/04/14 09:43:33;;;;;;;;;;;;;;;;;;5027939;28;45007;-84
2023/04/14 09:45:59;;;;;;;;;;;;;;;;;;5027474;28;43021;-85
2023/04/14 09:48:25;;;;;;;;;;;;;;;;;;5045433;28;43039;-83
2023/04/14 09:50:51;;;;;;;;;;;;;;;;;;5027556;28;42774;-84
2023/04/14 09:53:17;;;;;;;;;;;;;;;;;;5046142;28;43604;-85
2023/04/14 09:55:43;;;;;;;;;;;;;;;;;;5045988;28;42748;-83
2023/04/14 09:58:08;;;;;;;;;;;;;;;;;;5045520;28;43399;-84
2023/04/14 10:00:34;;;;;;;;;;;;;;;;;;5045536;28;42921;-86
2023/04/14 10:03:01;;;;;;;;;;;;;;;;;;5045249;28;43447;-87
2023/04/14 10:05:27;;;;;;;;;;;;;;;;;;5045432;28;42859;-83
2023/04/14 10:07:52;;;;;;;;;;;;;;;;;;5027003;28;44497;-86
2023/04/14 10:10:18;;;;;;;;;;;;;;;;;;5045389;28;42909;-86
2023/04/14 10:12:44;;;;;;;;;;;;;;;;;;5045410;28;43794;-84
2023/04/14 10:15:11;;;;;;;;;;;;;;;;;;5045283;28;42898;-85
2023/04/14 10:17:37;;;;;;;;;;;;;;;;;;5026308;28;43531;-83
2023/04/14 10:20:03;;;;;;;;;;;;;;;;;;5026899;28;43068;-84
2023/04/14 10:22:29;;;;;;;;;;;;;;;;;;5026979;28;44193;-85
2023/04/14 10:24:55;;;;;;;;;;;;;;;;;;5045545;28;42893;-90
2023/04/14 10:27:21;;;;;;;;;;;;;;;;;;5045464;28;42924;-91
2023/04/14 10:29:47;;;;;;;;;;;;;;;;;;5046317;28;43005;-92
2023/04/14 10:32:12;;;;;;;;;;;;;;;;;;5045502;28;42966;-88
2023/04/14 10:34:39;;;;;;;;;;;;;;;;;;5047058;28;42878;-90
2023/04/14 10:37:05;;;;;;;;;;;;;;;;;;5049453;28;43522;-91
2023/04/14 10:39:31;;;;;;;;;;;;;;;;;;5045357;28;42925;-91
2023/04/14 10:41:57;;;;;;;;;;;;;;;;;;5045202;28;42783;-91
2023/04/14 10:44:23;;;;;;;;;;;;;;;;;;5045149;28;43000;-90
2023/04/14 10:46:48;;;;;;;;;;;;;;;;;;5045472;28;43996;-91
2023/04/14 10:49:15;;;;;;;;;;;;;;;;;;5044595;28;43080;-90
2023/04/14 10:51:41;;;;;;;;;;;;;;;;;;5044833;28;42912;-88
2023/04/14 10:54:07;;;;;;;;;;;;;;;;;;5045155;28;42834;-92
2023/04/14 10:56:32;;;;;;;;;;;;;;;;;;5026618;28;45565;-91
2023/04/14 10:58:58;;;;;;;;;;;;;;;;;;5044801;28;42949;-91
2023/04/14 11:01:24;;;;;;;;;;;;;;;;;;5045057;28;43284;-91
2023/04/14 11:03:50;;;;;;;;;;;;;;;;;;5044935;28;42961;-90
2023/04/14 11:06:16;;;;;;;;;;;;;;;;;;5045189;28;43586;-92
2023/04/14 11:08:42;;;;;;;;;;;;;;;;;;5045166;28;42804;-89
2023/04/14 11:11:08;;;;;;;;;;;;;;;;;;5045038;28;43493;-92
2023/04/14 11:13:34;;;;;;;;;;;;;;;;;;5026920;28;42931;-92
2023/04/14 11:16:00;;;;;;;;;;;;;;;;;;5044641;28;42931;-92
2023/04/14 11:18:26;;;;;;;;;;;;;;;;;;5044925;28;42966;-92
2023/04/14 11:20:52;;;;;;;;;;;;;;;;;;5044861;28;42941;-87
2023/04/14 11:23:18;;;;;;;;;;;;;;;;;;5044098;28;42936;-92
2023/04/14 11:25:44;;;;;;;;;;;;;;;;;;5044149;28;42948;-91
2023/04/14 11:28:10;;;;;;;;;;;;;;;;;;5026584;28;42895;-84
2023/04/14 11:30:36;;;;;;;;;;;;;;;;;;5047853;28;42847;-84
2023/04/14 11:33:02;;;;;;;;;;;;;;;;;;5047845;28;42948;-83
2023/04/14 11:35:28;;;;;;;;;;;;;;;;;;5047516;28;43159;-86
2023/04/14 11:37:57;;;;;;;;;;;;;;;;;;5048210;28;42952;-83
2023/04/14 11:40:23;;;;;;;;;;;;;;;;;;5048393;28;42923;-84
2023/04/14 11:42:49;;;;;;;;;;;;;;;;;;5048300;28;43034;-84
2023/04/14 11:45:15;;;;;;;;;;;;;;;;;;5048290;28;42969;-86
2023/04/14 11:47:41;;;;;;;;;;;;;;;;;;5047510;28;42932;-85
2023/04/14 11:50:07;;;;;;;;;;;;;;;;;;5047477;28;42864;-88
2023/04/14 11:52:33;;;;;;;;;;;;;;;;;;5047602;28;43036;-90
2023/04/14 11:54:59;;;;;;;;;;;;;;;;;;5029519;28;43680;-91
2023/04/14 11:57:25;;;;;;;;;;;;;;;;;;5048637;28;42938;-84
2023/04/14 11:59:51;;;;;;;;;;;;;;;;;;5029968;28;42857;-90
2023/04/14 12:02:17;;;;;;;;;;;;;;;;;;5029870;28;42992;-83
2023/04/14 12:04:44;;;;;;;;;;;;;;;;;;5047279;28;43437;-83
2023/04/14 12:07:10;;;;;;;;;;;;;;;;;;5047588;28;42898;-82
2023/04/14 12:09:36;;;;;;;;;;;;;;;;;;5047546;28;42993;-84
2023/04/14 12:12:03;;;;;;;;;;;;;;;;;;5047577;28;42743;-84
2023/04/14 12:14:31;;;;;;;;;;;;;;;;;;5046607;28;63432;-84
2023/04/14 12:16:56;;;;;;;;;;;;;;;;;;5047043;28;42959;-83
2023/04/14 12:19:22;;;;;;;;;;;;;;;;;;5046657;28;43039;-83
2023/04/14 12:21:48;;;;;;;;;;;;;;;;;;5047034;28;43044;-89
2023/04/14 12:24:14;;;;;;;;;;;;;;;;;;5047267;28;42933;-86
2023/04/14 12:26:40;;;;;;;;;;;;;;;;;;5028912;28;43032;-92
2023/04/14 12:29:07;;;;;;;;;;;;;;;;;;5047212;28;43522;-85
2023/04/14 12:31:32;;;;;;;;;;;;;;;;;;5047350;28;42847;-83
2023/04/14 12:33:58;;;;;;;;;;;;;;;;;;5047196;28;42890;-84
2023/04/14 12:36:25;;;;;;;;;;;;;;;;;;5047251;28;42966;-90
2023/04/14 12:38:51;;;;;;;;;;;;;;;;;;5046868;28;43310;-82
2023/04/14 12:41:17;;;;;;;;;;;;;;;;;;5045398;28;42903;-83
2023/04/14 12:43:43;;;;;;;;;;;;;;;;;;5046886;28;43875;-83
2023/04/14 12:46:09;;;;;;;;;;;;;;;;;;5046675;28;42949;-83
2023/04/14 12:48:35;;;;;;;;;;;;;;;;;;5046169;28;42938;-83
2023/04/14 12:51:01;;;;;;;;;;;;;;;;;;5046765;28;42925;-86
2023/04/14 12:53:27;;;;;;;;;;;;;;;;;;5047261;28;42794;-84
2023/04/14 12:55:53;;;;;;;;;;;;;;;;;;5045127;28;43008;-83
2023/04/14 12:58:19;;;;;;;;;;;;;;;;;;5019462;28;44708;-82
2023/04/14 13:00:45;;;;;;;;;;;;;;;;;;5020221;28;43094;-82
2023/04/14 13:03:11;;;;;;;;;;;;;;;;;;5018907;28;44312;-83
2023/04/14 13:05:36;;;;;;;;;;;;;;;;;;5035951;28;42975;-82
2023/04/14 13:08:05;;;;;;;;;;;;;;;;;;5034937;28;43489;-89
2023/04/14 13:10:31;;;;;;;;;;;;;;;;;;5034879;28;42929;-88
2023/04/14 13:12:57;;;;;;;;;;;;;;;;;;5041825;28;44368;-82
2023/04/14 13:15:23;;;;;;;;;;;;;;;;;;5044424;28;42976;-87
2023/04/14 13:17:49;;;;;;;;;;;;;;;;;;5036330;28;43594;-91
2023/04/14 13:20:15;;;;;;;;;;;;;;;;;;5018039;28;42982;-83
2023/04/14 13:22:41;;;;;;;;;;;;;;;;;;5036171;28;43537;-84
2023/04/14 13:25:07;;;;;;;;;;;;;;;;;;5018103;28;43060;-87
2023/04/14 13:27:32;;;;;;;;;;;;;;;;;;5034103;28;43173;-83
2023/04/14 13:29:58;;;;;;;;;;;;;;;;;;5045895;28;42904;-84
2023/04/14 13:32:24;;;;;;;;;;;;;;;;;;5045354;28;42914;-84
2023/04/14 13:34:50;;;;;;;;;;;;;;;;;;5045950;28;42864;-90
2023/04/14 13:37:16;;;;;;;;;;;;;;;;;;5045309;28;43681;-90
2023/04/14 13:39:42;;;;;;;;;;;;;;;;;;5045622;28;42833;-87
2023/04/14 13:42:08;;;;;;;;;;;;;;;;;;5045526;28;43492;-85
2023/04/14 13:44:34;;;;;;;;;;;;;;;;;;5044621;28;43049;-83
2023/04/14 13:47:00;;;;;;;;;;;;;;;;;;5044805;28;44240;-85
2023/04/14 13:49:26;;;;;;;;;;;;;;;;;;5044875;28;42996;-84
2023/04/14 13:51:52;;;;;;;;;;;;;;;;;;5044632;28;43330;-83
2023/04/14 13:54:18;;;;;;;;;;;;;;;;;;5045444;28;42902;-83
2023/04/14 13:56:44;;;;;;;;;;;;;;;;;;5044755;28;42964;-83
2023/04/14 13:59:10;;;;;;;;;;;;;;;;;;5045111;28;43035;-83
2023/04/14 14:01:35;;;;;;;;;;;;;;;;;;5044719;28;43358;-84
2023/04/14 14:04:01;;;;;;;;;;;;;;;;;;5025504;28;42948;-83
2023/04/14 14:06:28;;;;;;;;;;;;;;;;;;5037512;28;43601;-85
2023/04/14 14:08:54;;;;;;;;;;;;;;;;;;5044000;28;42976;-84
2023/04/14 14:11:20;;;;;;;;;;;;;;;;;;5032998;28;42984;-83
2023/04/14 14:13:45;;;;;;;;;;;;;;;;;;5032575;28;43003;-83
2023/04/14 14:16:12;;;;;;;;;;;;;;;;;;5032207;28;42860;-83
2023/04/14 14:18:38;;;;;;;;;;;;;;;;;;5027165;28;42946;-81
2023/04/14 14:21:04;;;;;;;;;;;;;;;;;;5027047;28;44465;-82
2023/04/14 14:23:30;;;;;;;;;;;;;;;;;;5007383;28;43003;-82
2023/04/14 14:25:56;;;;;;;;;;;;;;;;;;5006745;28;44146;-82
2023/04/14 14:28:22;;;;;;;;;;;;;;;;;;5024685;28;42953;-82
2023/04/14 14:30:48;;;;;;;;;;;;;;;;;;5024768;28;43745;-81
2023/04/14 14:33:14;;;;;;;;;;;;;;;;;;5024129;28;42739;-83
2023/04/14 14:35:40;;;;;;;;;;;;;;;;;;5024486;28;42856;-82
2023/04/14 14:38:05;;;;;;;;;;;;;;;;;;5024692;28;43028;-82
2023/04/14 14:40:31;;;;;;;;;;;;;;;;;;5024628;28;42889;-82
2023/04/14 14:42:58;;;;;;;;;;;;;;;;;;5006836;28;43159;-82
2023/04/14 14:45:24;;;;;;;;;;;;;;;;;;5024272;28;42846;-81
2023/04/14 14:47:51;;;;;;;;;;;;;;;;;;5024418;28;42910;-81
2023/04/14 14:50:16;;;;;;;;;;;;;;;;;;5024410;28;43020;-82
2023/04/14 14:52:42;;;;;;;;;;;;;;;;;;5024258;28;43339;-83
2023/04/14 14:55:08;;;;;;;;;;;;;;;;;;5024444;28;43780;-92
2023/04/14 14:57:34;;;;;;;;;;;;;;;;;;5025087;28;42881;-91
2023/04/14 15:00:00;;;;;;;;;;;;;;;;;;5024676;28;43466;-95
2023/04/14 15:02:26;;;;;;;;;;;;;;;;;;5024323;28;42914;-93
2023/04/14 15:04:52;;;;;;;;;;;;;;;;;;5023275;28;43017;-93
2023/04/14 15:07:18;;;;;;;;;;;;;;;;;;5024582;28;42997;-94
2023/04/14 15:09:44;;;;;;;;;;;;;;;;;;5036727;28;43644;-94
2023/04/14 15:12:10;;;;;;;;;;;;;;;;;;5032228;28;43008;-92
2023/04/14 15:14:35;;;;;;;;;;;;;;;;;;5035388;28;43996;-94
2023/04/14 15:17:01;;;;;;;;;;;;;;;;;;5033314;28;42913;-94
2023/04/14 15:19:28;;;;;;;;;;;;;;;;;;5016186;28;45164;-91
2023/04/14 15:21:53;;;;;;;;;;;;;;;;;;5017103;28;42930;-94
2023/04/14 15:24:20;;;;;;;;;;;;;;;;;;5018174;28;44842;-93
2023/04/14 15:26:46;;;;;;;;;;;;;;;;;;5016034;28;43052;-93
2023/04/14 15:29:11;;;;;;;;;;;;;;;;;;5035212;28;43050;-92
2023/04/14 15:31:37;;;;;;;;;;;;;;;;;;5036002;28;43039;-93
2023/04/14 15:34:03;;;;;;;;;;;;;;;;;;5034049;28;43110;-95
2023/04/14 15:36:32;;;;;;;;;;;;;;;;;;5034233;28;42869;-93
2023/04/14 15:38:58;;;;;;;;;;;;;;;;;;5015922;28;43517;-91
2023/04/14 15:41:24;;;;;;;;;;;;;;;;;;5035853;28;43025;-82
2023/04/14 15:43:50;;;;;;;;;;;;;;;;;;5033087;28;42929;-82
2023/04/14 15:46:16;;;;;;;;;;;;;;;;;;5029723;28;43057;-82
2023/04/14 15:48:42;;;;;;;;;;;;;;;;;;5034082;28;43647;-80
2023/04/14 15:51:08;;;;;;;;;;;;;;;;;;5030321;28;42990;-89
2023/04/14 15:53:34;;;;;;;;;;;;;;;;;;5037746;28;44252;-82
2023/04/14 15:56:00;;;;;;;;;;;;;;;;;;5037457;28;42799;-81
2023/04/14 15:58:26;;;;;;;;;;;;;;;;;;5034103;28;43379;-81
2023/04/14 16:00:52;;;;;;;;;;;;;;;;;;5042081;28;42913;-82
2023/04/14 16:03:18;;;;;;;;;;;;;;;;;;5025762;28;44427;-81
2023/04/14 16:05:44;;;;;;;;;;;;;;;;;;5025809;28;43058;-82
2023/04/14 16:08:10;;;;;;;;;;;;;;;;;;5044720;28;43588;-82
2023/04/14 16:10:36;;;;;;;;;;;;;;;;;;5043493;28;43068;-82
2023/04/14 16:13:02;;;;;;;;;;;;;;;;;;5043652;28;43362;-82
2023/04/14 16:15:28;;;;;;;;;;;;;;;;;;5046334;28;43110;-82
2023/04/14 16:17:55;;;;;;;;;;;;;;;;;;5047619;28;43575;-84
2023/04/14 16:20:20;;;;;;;;;;;;;;;;;;5026841;28;43052;-82
2023/04/14 16:22:48;;;;;;;;;;;;;;;;;;5035596;28;43162;-83
2023/04/14 16:25:14;;;;;;;;;;;;;;;;;;5034188;28;43075;-82
2023/04/14 16:27:40;;;;;;;;;;;;;;;;;;5034930;28;43028;-82
2023/04/14 16:30:06;;;;;;;;;;;;;;;;;;5037354;28;42924;-83
2023/04/14 16:32:32;;;;;;;;;;;;;;;;;;5036081;28;43097;-82
2023/04/14 16:34:58;;;;;;;;;;;;;;;;;;5020368;28;43127;-82
2023/04/14 16:37:24;;;;;;;;;;;;;;;;;;5046117;28;43329;-83